createdAt,value
2019-02-20T00:00:23.504Z,101798.28
2019-02-20T00:02:49.338Z,101805.33
2019-02-20T00:05:15.182Z,101804.52
2019-02-20T00:07:41.033Z,101798.97
2019-02-20T00:10:07.010Z,101799.61
2019-02-20T00:12:32.837Z,101791.84
2019-02-20T00:14:58.701Z,101794.64
2019-02-20T00:17:24.500Z,101795.28
2019-02-20T00:19:50.392Z,101794.94
2019-02-20T00:22:16.346Z,101792.61
2019-02-20T00:24:42.308Z,101797.18
2019-02-20T00:27:08.145Z,101789.50
2019-02-20T00:29:33.979Z,101789.80
2019-02-20T00:31:59.834Z,101791.40
2019-02-20T00:34:25.671Z,101794.62
2019-02-20T00:36:51.516Z,101790.75
2019-02-20T00:39:17.322Z,101791.06
2019-02-20T00:41:43.160Z,101793.95
2019-02-20T00:44:16.657Z,101800.61
2019-02-20T00:46:44.427Z,101799.81
2019-02-20T00:49:12.186Z,101801.05
2019-02-20T00:51:42.617Z,101806.06
2019-02-20T00:54:09.380Z,101808.52
2019-02-20T00:56:35.529Z,101804.91
2019-02-20T00:59:01.368Z,101809.95
2019-02-20T01:01:27.320Z,101805.02
2019-02-20T01:03:53.157Z,101811.30
2019-02-20T01:06:18.997Z,101808.04
2019-02-20T01:08:44.822Z,101814.16
2019-02-20T01:11:10.767Z,101813.52
2019-02-20T01:13:36.586Z,101817.20
2019-02-20T01:16:02.439Z,101809.17
2019-02-20T01:18:28.264Z,101809.02
2019-02-20T01:20:54.135Z,101809.27
2019-02-20T01:23:19.992Z,101807.79
2019-02-20T01:25:45.806Z,101808.94
2019-02-20T01:28:11.944Z,101810.51
2019-02-20T01:30:37.766Z,101804.95
2019-02-20T01:33:03.717Z,101806.05
2019-02-20T01:35:29.552Z,101804.44
2019-02-20T01:37:55.394Z,101800.61
2019-02-20T01:40:21.216Z,101795.60
2019-02-20T01:42:47.096Z,101792.51
2019-02-20T01:45:12.917Z,101792.05
2019-02-20T01:47:38.762Z,101793.44
2019-02-20T01:50:06.193Z,101798.81
2019-02-20T01:52:32.158Z,101789.83
2019-02-20T01:54:58.025Z,101800.46
2019-02-20T01:57:23.847Z,101802.41
2019-02-20T01:59:49.720Z,101799.94
2019-02-20T02:02:15.552Z,101798.70
2019-02-20T02:04:41.504Z,101797.89
2019-02-20T02:07:07.339Z,101794.45
2019-02-20T02:09:33.213Z,101788.47
2019-02-20T02:11:59.031Z,101785.87
2019-02-20T02:14:24.986Z,101791.25
2019-02-20T02:16:50.806Z,101792.56
2019-02-20T02:19:16.639Z,101788.67
2019-02-20T02:21:42.508Z,101786.92
2019-02-20T02:24:08.463Z,101789.48
2019-02-20T02:26:34.282Z,101793.77
2019-02-20T02:29:00.113Z,101796.70
2019-02-20T02:31:25.952Z,101791.44
2019-02-20T02:33:52.581Z,101790.39
2019-02-20T02:36:18.417Z,101790.35
2019-02-20T02:38:44.231Z,101790.69
2019-02-20T02:41:10.089Z,101794.52
2019-02-20T02:43:35.911Z,101794.40
2019-02-20T02:46:01.751Z,101789.95
2019-02-20T02:48:27.591Z,101789.27
2019-02-20T02:50:53.438Z,101787.41
2019-02-20T02:53:19.264Z,101790.69
2019-02-20T02:55:45.112Z,101791.41
2019-02-20T02:58:10.932Z,101792.27
2019-02-20T03:00:36.779Z,101789.00
2019-02-20T03:03:02.686Z,101791.41
2019-02-20T03:05:28.526Z,101789.75
2019-02-20T03:07:54.366Z,101785.38
2019-02-20T03:10:20.215Z,101786.78
2019-02-20T03:12:46.040Z,101785.42
2019-02-20T03:15:12.001Z,101794.12
2019-02-20T03:17:37.864Z,101794.28
2019-02-20T03:20:06.450Z,101792.75
2019-02-20T03:22:32.271Z,101789.08
2019-02-20T03:24:58.128Z,101791.44
2019-02-20T03:27:23.940Z,101790.47
2019-02-20T03:29:49.767Z,101805.19
2019-02-20T03:32:15.600Z,101802.13
2019-02-20T03:34:41.433Z,101799.42
2019-02-20T03:37:07.270Z,101803.67
2019-02-20T03:39:33.155Z,101795.94
2019-02-20T03:41:59.461Z,101798.45
2019-02-20T03:44:25.288Z,101795.78
2019-02-20T03:46:51.164Z,101796.50
2019-02-20T03:49:16.975Z,101796.84
2019-02-20T03:51:42.809Z,101796.80
2019-02-20T03:54:08.646Z,101789.68
2019-02-20T03:56:34.503Z,101793.11
2019-02-20T03:59:00.329Z,101801.05
2019-02-20T04:01:26.190Z,101806.05
2019-02-20T04:03:52.001Z,101800.48
2019-02-20T04:06:17.858Z,101809.03
2019-02-20T04:08:43.683Z,101808.47
2019-02-20T04:11:09.523Z,101807.83
2019-02-20T04:13:35.381Z,101807.83
2019-02-20T04:16:01.212Z,101810.38
2019-02-20T04:18:27.085Z,101809.61
2019-02-20T04:20:52.926Z,101816.91
2019-02-20T04:23:18.789Z,101810.59
2019-02-20T04:25:44.643Z,101813.99
2019-02-20T04:28:10.507Z,101814.41
2019-02-20T04:30:36.350Z,101816.87
2019-02-20T04:33:02.499Z,101812.80
2019-02-20T04:35:28.327Z,101808.97
2019-02-20T04:37:54.156Z,101807.66
2019-02-20T04:40:19.991Z,101810.98
2019-02-20T04:42:45.854Z,101818.52
2019-02-20T04:45:11.672Z,101819.84
2019-02-20T04:47:37.627Z,101818.52
2019-02-20T04:50:06.467Z,101818.52
2019-02-20T04:52:32.352Z,101823.23
2019-02-20T04:54:58.172Z,101820.37
2019-02-20T04:57:23.994Z,101819.42
2019-02-20T04:59:49.806Z,101818.98
2019-02-20T05:02:15.652Z,101816.30
2019-02-20T05:04:41.622Z,101818.13
2019-02-20T05:07:07.549Z,101813.83
2019-02-20T05:09:33.816Z,101816.00
2019-02-20T05:11:59.638Z,101810.73
2019-02-20T05:14:25.494Z,101819.48
2019-02-20T05:16:51.367Z,101814.21
2019-02-20T05:19:17.287Z,101815.58
2019-02-20T05:21:43.225Z,101811.62
2019-02-20T05:24:09.063Z,101817.31
2019-02-20T05:26:34.889Z,101814.34
2019-02-20T05:29:00.730Z,101810.60
2019-02-20T05:31:26.543Z,101803.03
2019-02-20T05:33:52.392Z,101809.08
2019-02-20T05:36:18.215Z,101804.50
2019-02-20T05:38:44.084Z,101802.64
2019-02-20T05:41:09.902Z,101800.86
2019-02-20T05:43:35.755Z,101801.28
2019-02-20T05:46:01.588Z,101802.73
2019-02-20T05:48:27.413Z,101809.41
2019-02-20T05:50:53.252Z,101805.76
2019-02-20T05:53:19.059Z,101809.23
2019-02-20T05:55:44.922Z,101805.41
2019-02-20T05:58:10.855Z,101811.53
2019-02-20T06:00:36.712Z,101810.04
2019-02-20T06:03:04.789Z,101810.58
2019-02-20T06:05:30.406Z,101811.89
2019-02-20T06:07:56.424Z,101817.66
2019-02-20T06:10:22.227Z,101824.13
2019-02-20T06:12:48.065Z,101820.07
2019-02-20T06:15:14.007Z,101823.48
2019-02-20T06:17:39.803Z,101829.73
2019-02-20T06:20:10.219Z,101826.11
2019-02-20T06:22:36.120Z,101830.73
2019-02-20T06:25:03.445Z,101836.87
2019-02-20T06:27:29.321Z,101834.41
2019-02-20T06:29:55.159Z,101839.38
2019-02-20T06:32:21.013Z,101850.46
2019-02-20T06:34:46.833Z,101858.06
2019-02-20T06:37:12.783Z,101846.99
2019-02-20T06:39:38.632Z,101843.14
2019-02-20T06:42:04.528Z,101843.77
2019-02-20T06:44:30.597Z,101843.44
2019-02-20T06:46:56.475Z,101849.08
2019-02-20T06:49:22.302Z,101853.88
2019-02-20T06:51:48.165Z,101861.44
2019-02-20T06:54:14.092Z,101855.40
2019-02-20T06:56:39.943Z,101865.33
2019-02-20T06:59:05.776Z,101861.56
2019-02-20T07:01:31.756Z,101862.58
2019-02-20T07:03:57.561Z,101863.26
2019-02-20T07:06:38.870Z,101868.88
2019-02-20T07:09:29.376Z,101875.06
2019-02-20T07:12:28.843Z,101875.39
2019-02-20T07:15:13.265Z,101872.67
2019-02-20T07:17:45.928Z,101878.41
2019-02-20T07:20:24.163Z,101876.66
2019-02-20T07:23:06.055Z,101881.77
2019-02-20T07:25:38.688Z,101880.39
2019-02-20T07:28:23.607Z,101880.94
2019-02-20T07:30:49.620Z,101882.91
2019-02-20T07:33:15.471Z,101881.48
2019-02-20T07:35:41.388Z,101881.02
2019-02-20T07:38:07.324Z,101882.27
2019-02-20T07:40:33.149Z,101879.10
2019-02-20T07:42:59.008Z,101881.98
2019-02-20T07:45:24.821Z,101884.61
2019-02-20T07:47:50.684Z,101895.73
2019-02-20T07:50:17.013Z,101891.37
2019-02-20T07:52:42.853Z,101896.64
2019-02-20T07:55:13.193Z,101899.87
2019-02-20T07:57:36.535Z,101903.44
2019-02-20T08:00:05.787Z,101907.58
2019-02-20T08:02:31.601Z,101912.34
2019-02-20T08:04:57.444Z,101916.02
2019-02-20T08:07:23.280Z,101923.41
2019-02-20T08:09:49.118Z,101931.34
2019-02-20T08:12:14.934Z,101931.18
2019-02-20T08:14:40.784Z,101933.81
2019-02-20T08:17:06.605Z,101931.67
2019-02-20T08:19:32.744Z,101929.09
2019-02-20T08:21:58.710Z,101930.92
2019-02-20T08:24:24.702Z,101941.61
2019-02-20T08:26:50.798Z,101934.37
2019-02-20T08:29:16.606Z,101946.87
2019-02-20T08:31:42.463Z,101938.20
2019-02-20T08:34:08.291Z,101943.84
2019-02-20T08:36:34.255Z,101940.23
2019-02-20T08:39:00.087Z,101944.52
2019-02-20T08:41:25.954Z,101952.17
2019-02-20T08:43:51.791Z,101950.61
2019-02-20T08:46:17.652Z,101956.45
2019-02-20T08:48:43.488Z,101951.30
2019-02-20T08:51:09.349Z,101957.69
2019-02-20T08:53:35.178Z,101956.72
2019-02-20T08:56:01.165Z,101956.26
2019-02-20T08:58:26.988Z,101957.44
2019-02-20T09:00:52.965Z,101956.77
2019-02-20T09:03:18.807Z,101961.18
2019-02-20T09:05:44.674Z,101952.65
2019-02-20T09:08:10.523Z,101955.72
2019-02-20T09:10:36.388Z,101958.77
2019-02-20T09:13:02.440Z,101958.45
2019-02-20T09:15:28.253Z,101954.72
2019-02-20T09:17:54.127Z,101954.84
2019-02-20T09:20:20.002Z,101949.97
2019-02-20T09:22:45.845Z,101955.80
2019-02-20T09:25:19.603Z,101955.47
2019-02-20T09:27:39.443Z,101952.47
2019-02-20T09:30:09.085Z,101958.38
2019-02-20T09:32:34.933Z,101959.22
2019-02-20T09:35:00.801Z,101962.80
2019-02-20T09:37:26.675Z,101963.27
2019-02-20T09:39:52.496Z,101966.17
2019-02-20T09:42:18.466Z,101962.05
2019-02-20T09:44:44.889Z,101966.11
2019-02-20T09:47:11.435Z,101967.49
2019-02-20T09:49:37.268Z,101964.42
2019-02-20T09:52:03.209Z,101967.67
2019-02-20T09:54:29.088Z,101973.56
2019-02-20T09:56:57.145Z,101973.73
2019-02-20T09:59:23.215Z,101973.84
2019-02-20T10:01:49.212Z,101971.78
2019-02-20T10:04:15.053Z,101969.20
2019-02-20T10:06:40.972Z,101966.56
2019-02-20T10:09:06.989Z,101971.64
2019-02-20T10:11:32.805Z,101963.06
2019-02-20T10:13:58.665Z,101965.63
2019-02-20T10:16:24.728Z,101964.42
2019-02-20T10:18:50.586Z,101958.41
2019-02-20T10:21:17.263Z,101959.20
2019-02-20T10:23:45.270Z,101954.73
2019-02-20T10:26:11.266Z,101965.08
2019-02-20T10:28:37.127Z,101965.39
2019-02-20T10:31:02.962Z,101961.28
2019-02-20T10:33:28.807Z,101964.56
2019-02-20T10:35:54.644Z,101965.70
2019-02-20T10:38:20.461Z,101955.37
2019-02-20T10:40:46.314Z,101957.58
2019-02-20T10:43:12.132Z,101955.55
2019-02-20T10:45:37.966Z,101953.62
2019-02-20T10:48:03.917Z,101955.11
2019-02-20T10:50:29.918Z,101954.34
2019-02-20T10:52:55.877Z,101965.33
2019-02-20T10:55:21.712Z,101962.02
2019-02-20T10:57:47.539Z,101957.28
2019-02-20T11:00:25.349Z,101952.53
2019-02-20T11:02:51.280Z,101948.91
2019-02-20T11:05:17.261Z,101955.53
2019-02-20T11:07:43.086Z,101954.04
2019-02-20T11:10:08.923Z,101954.33
2019-02-20T11:12:34.787Z,101947.69
2019-02-20T11:15:00.642Z,101946.45
2019-02-20T11:17:26.466Z,101955.08
2019-02-20T11:19:52.364Z,101943.36
2019-02-20T11:22:18.301Z,101955.58
2019-02-20T11:24:44.128Z,101957.70
2019-02-20T11:27:09.989Z,101952.25
2019-02-20T11:29:35.819Z,101954.80
2019-02-20T11:32:01.797Z,101958.02
2019-02-20T11:34:27.628Z,101958.54
2019-02-20T11:36:53.486Z,101954.90
2019-02-20T11:39:19.415Z,101952.78
2019-02-20T11:41:45.273Z,101950.55
2019-02-20T11:44:11.101Z,101953.08
2019-02-20T11:46:36.967Z,101943.13
2019-02-20T11:49:02.808Z,101951.98
2019-02-20T11:51:28.683Z,101951.14
2019-02-20T11:53:54.642Z,101951.27
2019-02-20T11:56:26.468Z,101943.89
2019-02-20T11:58:48.221Z,101955.76
2019-02-20T12:01:14.389Z,101948.61
2019-02-20T12:03:40.235Z,101952.89
2019-02-20T12:06:06.196Z,101945.32
2019-02-20T12:08:32.170Z,101949.56
2019-02-20T12:10:57.996Z,101940.61
2019-02-20T12:13:23.859Z,101938.98
2019-02-20T12:15:50.009Z,101953.08
2019-02-20T12:18:17.577Z,101947.22
2019-02-20T12:20:43.639Z,101953.06
2019-02-20T12:23:09.620Z,101945.72
2019-02-20T12:25:35.547Z,101934.28
2019-02-20T12:28:01.433Z,101937.42
2019-02-20T12:30:27.389Z,101937.02
2019-02-20T12:32:53.251Z,101931.24
2019-02-20T12:35:19.081Z,101927.86
2019-02-20T12:37:45.017Z,101926.30
2019-02-20T12:40:10.980Z,101926.38
2019-02-20T12:42:36.945Z,101926.92
2019-02-20T12:45:04.917Z,101929.59
2019-02-20T12:47:30.781Z,101931.68
2019-02-20T12:49:56.783Z,101935.16
2019-02-20T12:52:22.674Z,101937.92
2019-02-20T12:54:48.545Z,101936.97
2019-02-20T12:57:14.379Z,101931.38
2019-02-20T12:59:40.262Z,101943.00
2019-02-20T13:02:06.092Z,101943.00
2019-02-20T13:04:31.957Z,101940.00
2019-02-20T13:06:59.530Z,101934.52
2019-02-20T13:09:25.641Z,101943.18
2019-02-20T13:11:51.565Z,101941.37
2019-02-20T13:14:17.396Z,101943.45
2019-02-20T13:16:43.566Z,101940.27
2019-02-20T13:19:09.459Z,101934.45
2019-02-20T13:21:35.438Z,101938.93
2019-02-20T13:24:01.380Z,101936.39
2019-02-20T13:26:27.226Z,101939.50
2019-02-20T13:28:53.102Z,101932.26
2019-02-20T13:31:19.070Z,101932.38
2019-02-20T13:33:44.916Z,101928.58
2019-02-20T13:36:10.805Z,101929.56
2019-02-20T13:38:36.632Z,101927.91
2019-02-20T13:41:02.629Z,101921.02
2019-02-20T13:43:28.469Z,101925.72
2019-02-20T13:45:54.444Z,101942.13
2019-02-20T13:48:20.293Z,101942.41
2019-02-20T13:50:46.156Z,101935.63
2019-02-20T13:53:14.189Z,101933.36
2019-02-20T13:55:39.864Z,101935.16
2019-02-20T13:58:05.823Z,101931.33
2019-02-20T14:00:31.791Z,101925.88
2019-02-20T14:02:57.621Z,101933.05
2019-02-20T14:05:24.035Z,101928.09
2019-02-20T14:07:49.873Z,101930.91
2019-02-20T14:10:19.522Z,101926.72
2019-02-20T14:12:45.591Z,101920.92
2019-02-20T14:15:11.541Z,101922.96
2019-02-20T14:17:37.499Z,101921.34
2019-02-20T14:20:06.531Z,101925.62
2019-02-20T14:22:32.402Z,101924.81
2019-02-20T14:24:58.545Z,101924.45
2019-02-20T14:27:24.397Z,101927.17
2019-02-20T14:29:50.344Z,101919.53
2019-02-20T14:32:16.207Z,101924.93
2019-02-20T14:34:42.222Z,101922.86
2019-02-20T14:37:08.176Z,101917.23
2019-02-20T14:39:34.009Z,101915.80
2019-02-20T14:42:01.041Z,101918.45
2019-02-20T14:44:27.265Z,101917.00
2019-02-20T14:46:53.525Z,101918.63
2019-02-20T14:49:19.370Z,101920.94
2019-02-20T14:51:45.209Z,101916.64
2019-02-20T14:54:11.258Z,101908.73
2019-02-20T14:56:37.187Z,101908.54
2019-02-20T14:59:03.052Z,101906.61
2019-02-20T15:01:28.982Z,101915.66
2019-02-20T15:03:54.972Z,101914.50
2019-02-20T15:06:20.836Z,101918.27
2019-02-20T15:08:46.795Z,101922.95
2019-02-20T15:11:12.754Z,101927.30
2019-02-20T15:13:38.734Z,101923.88
2019-02-20T15:16:04.595Z,101923.41
2019-02-20T15:18:30.557Z,101919.23
2019-02-20T15:20:56.542Z,101923.19
2019-02-20T15:23:22.502Z,101924.98
2019-02-20T15:25:48.391Z,101930.72
2019-02-20T15:28:14.812Z,101926.39
2019-02-20T15:30:40.846Z,101929.68
2019-02-20T15:33:06.821Z,101929.79
2019-02-20T15:35:32.701Z,101927.34
2019-02-20T15:37:58.675Z,101934.97
2019-02-20T15:40:24.963Z,101936.45
2019-02-20T15:42:50.806Z,101937.09
2019-02-20T15:45:16.778Z,101943.65
2019-02-20T15:47:42.608Z,101939.15
2019-02-20T15:50:11.543Z,101940.79
2019-02-20T15:52:37.493Z,101945.52
2019-02-20T15:55:05.272Z,101944.69
2019-02-20T15:57:37.891Z,101944.89
2019-02-20T15:59:59.018Z,101944.08
2019-02-20T16:02:24.861Z,101944.75
2019-02-20T16:04:50.782Z,101941.68
2019-02-20T16:07:16.723Z,101946.78
2019-02-20T16:09:42.818Z,101941.31
2019-02-20T16:12:09.070Z,101942.88
2019-02-20T16:14:35.039Z,101949.27
2019-02-20T16:17:01.105Z,101944.04
2019-02-20T16:19:27.042Z,101953.98
2019-02-20T16:21:53.044Z,101950.70
2019-02-20T16:24:18.899Z,101945.92
2019-02-20T16:26:44.907Z,101942.09
2019-02-20T16:29:10.726Z,101948.59
2019-02-20T16:31:36.722Z,101948.98
2019-02-20T16:34:02.950Z,101951.17
2019-02-20T16:36:28.824Z,101946.81
2019-02-20T16:38:54.820Z,101947.17
2019-02-20T16:41:20.827Z,101942.64
2019-02-20T16:43:48.599Z,101938.65
2019-02-20T16:46:16.864Z,101946.77
2019-02-20T16:48:43.211Z,101942.91
2019-02-20T16:51:09.369Z,101946.84
2019-02-20T16:53:35.536Z,101948.56
2019-02-20T16:56:01.395Z,101948.50
2019-02-20T16:58:27.282Z,101959.42
2019-02-20T17:00:53.208Z,101958.75
2019-02-20T17:03:19.213Z,101962.84
2019-02-20T17:05:45.097Z,101964.88
2019-02-20T17:08:11.062Z,101961.52
2019-02-20T17:10:36.921Z,101976.55
2019-02-20T17:13:03.082Z,101982.64
2019-02-20T17:15:29.544Z,101983.99
2019-02-20T17:17:55.437Z,101985.42
2019-02-20T17:20:21.409Z,101992.72
2019-02-20T17:22:47.383Z,101989.99
2019-02-20T17:25:13.722Z,101991.09
2019-02-20T17:27:39.732Z,101990.52
2019-02-20T17:30:11.698Z,101996.54
2019-02-20T17:32:37.665Z,101995.63
2019-02-20T17:35:05.716Z,101997.56
2019-02-20T17:37:31.766Z,101994.94
2019-02-20T17:39:57.648Z,102007.19
2019-02-20T17:42:23.588Z,102006.05
2019-02-20T17:44:49.453Z,102006.34
2019-02-20T17:47:15.404Z,102008.73
2019-02-20T17:49:41.382Z,102009.08
2019-02-20T17:52:07.272Z,102021.02
2019-02-20T17:54:33.883Z,102018.88
2019-02-20T17:56:59.700Z,102023.72
2019-02-20T17:59:25.678Z,102030.17
2019-02-20T18:01:51.732Z,102031.76
2019-02-20T18:04:17.629Z,102029.69
2019-02-20T18:06:43.605Z,102038.27
2019-02-20T18:09:10.638Z,102029.70
2019-02-20T18:11:36.499Z,102032.81
2019-02-20T18:14:02.480Z,102037.58
2019-02-20T18:16:28.383Z,102036.95
2019-02-20T18:18:54.189Z,102036.80
2019-02-20T18:21:20.169Z,102025.91
2019-02-20T18:23:46.057Z,102032.59
2019-02-20T18:26:12.082Z,102032.27
2019-02-20T18:28:37.916Z,102036.78
2019-02-20T18:31:03.894Z,102037.34
2019-02-20T18:33:29.827Z,102034.30
2019-02-20T18:35:55.699Z,102036.25
2019-02-20T18:38:21.541Z,102044.25
2019-02-20T18:40:47.364Z,102046.36
2019-02-20T18:43:13.231Z,102046.64
2019-02-20T18:45:39.200Z,102039.08
2019-02-20T18:48:05.385Z,102040.23
2019-02-20T18:50:31.259Z,102049.59
2019-02-20T18:52:57.173Z,102046.00
2019-02-20T18:55:23.121Z,102047.86
2019-02-20T18:57:49.052Z,102045.94
2019-02-20T19:00:21.370Z,102043.20
2019-02-20T19:02:47.232Z,102043.05
2019-02-20T19:05:13.596Z,102047.80
2019-02-20T19:07:39.553Z,102048.75
2019-02-20T19:10:18.268Z,102052.45
2019-02-20T19:13:09.202Z,102053.08
2019-02-20T19:15:41.942Z,102050.72
2019-02-20T19:18:30.021Z,102060.75
2019-02-20T19:21:23.986Z,102059.95
2019-02-20T19:24:19.676Z,102060.64
2019-02-20T19:27:07.626Z,102057.03
2019-02-20T19:29:58.605Z,102058.39
2019-02-20T19:32:40.530Z,102058.89
2019-02-20T19:35:28.179Z,102057.92
2019-02-20T19:38:09.704Z,102067.70
2019-02-20T19:41:04.625Z,102061.71
2019-02-20T19:43:34.286Z,102058.13
2019-02-20T19:46:23.481Z,102064.50
2019-02-20T19:49:08.429Z,102065.11
2019-02-20T19:51:44.285Z,102068.02
2019-02-20T19:54:20.161Z,102072.26
2019-02-20T19:56:49.807Z,102074.57
2019-02-20T19:59:22.133Z,102074.83
2019-02-20T20:02:12.994Z,102073.41
2019-02-20T20:04:45.670Z,102078.50
2019-02-20T20:07:48.965Z,102077.95
2019-02-20T20:10:39.904Z,102078.88
2019-02-20T20:13:35.474Z,102081.33
2019-02-20T20:16:20.151Z,102078.55
2019-02-20T20:18:58.765Z,102082.26
2019-02-20T20:21:45.051Z,102081.98
2019-02-20T20:24:32.530Z,102078.30
2019-02-20T20:27:25.298Z,102079.47
2019-02-20T20:30:28.796Z,102077.73
2019-02-20T20:33:04.211Z,102075.31
2019-02-20T20:35:57.200Z,102069.36
2019-02-20T20:38:32.624Z,102072.56
2019-02-20T20:41:09.182Z,102079.62
2019-02-20T20:43:54.516Z,102078.39
2019-02-20T20:46:42.637Z,102082.03
2019-02-20T20:49:18.117Z,102085.31
2019-02-20T20:51:50.871Z,102084.13
2019-02-20T20:54:29.419Z,102081.63
2019-02-20T20:57:19.942Z,102083.59
2019-02-20T20:59:52.306Z,102090.95
2019-02-20T21:02:25.001Z,102095.93
2019-02-20T21:05:23.788Z,102094.66
2019-02-20T21:07:56.505Z,102099.67
2019-02-20T21:10:28.907Z,102094.66
2019-02-20T21:13:10.594Z,102097.84
2019-02-20T21:16:00.884Z,102097.84
2019-02-20T21:18:39.663Z,102103.70
2019-02-20T21:21:15.424Z,102098.09
2019-02-20T21:23:54.252Z,102100.95
2019-02-20T21:26:58.969Z,102101.41
2019-02-20T21:29:47.422Z,102106.41
2019-02-20T21:32:23.426Z,102110.02
2019-02-20T21:34:58.954Z,102114.48
2019-02-20T21:37:37.337Z,102113.09
2019-02-20T21:40:29.571Z,102122.78
2019-02-20T21:43:21.881Z,102113.55
2019-02-20T21:46:09.629Z,102125.06
2019-02-20T21:48:59.072Z,102130.41
2019-02-20T21:51:28.887Z,102129.72
2019-02-20T21:54:04.337Z,102123.53
2019-02-20T21:56:37.045Z,102132.52
2019-02-20T21:59:15.484Z,102136.63
2019-02-20T22:01:57.075Z,102131.02
2019-02-20T22:04:32.834Z,102137.68
2019-02-20T22:07:30.352Z,102135.66
2019-02-20T22:10:08.804Z,102143.91
2019-02-20T22:13:11.937Z,102145.46
2019-02-20T22:15:47.888Z,102145.23
2019-02-20T22:18:35.763Z,102145.39
2019-02-20T22:21:11.299Z,102150.50
2019-02-20T22:23:56.004Z,102151.47
2019-02-20T22:26:34.601Z,102148.41
2019-02-20T22:29:33.483Z,102151.47
2019-02-20T22:32:03.190Z,102145.39
2019-02-20T22:35:03.452Z,102150.27
2019-02-20T22:37:47.907Z,102149.03
2019-02-20T22:40:35.613Z,102151.23
2019-02-20T22:43:31.908Z,102150.31
2019-02-20T22:46:13.755Z,102149.22
2019-02-20T22:48:58.385Z,102150.08
2019-02-20T22:51:47.912Z,102144.73
2019-02-20T22:54:44.608Z,102147.99
2019-02-20T22:57:26.126Z,102153.33
2019-02-20T23:00:34.623Z,102154.53
2019-02-20T23:03:12.246Z,102154.42
2019-02-20T23:05:48.113Z,102162.13
2019-02-20T23:08:20.549Z,102158.59
2019-02-20T23:11:08.608Z,102164.33
2019-02-20T23:13:41.016Z,102166.89
2019-02-20T23:16:06.910Z,102171.88
2019-02-20T23:18:32.723Z,102174.55
2019-02-20T23:20:58.682Z,102171.41
2019-02-20T23:23:24.536Z,102171.37
2019-02-20T23:25:50.389Z,102170.21
2019-02-20T23:28:16.234Z,102169.21
2019-02-20T23:30:42.063Z,102170.88
2019-02-20T23:33:07.928Z,102171.42
2019-02-20T23:35:33.763Z,102175.91
2019-02-20T23:37:59.606Z,102173.36
2019-02-20T23:40:27.609Z,102162.82
2019-02-20T23:42:53.208Z,102168.52
2019-02-20T23:45:19.205Z,102172.15
2019-02-20T23:47:45.050Z,102173.58
2019-02-20T23:50:11.070Z,102177.53
2019-02-20T23:52:37.280Z,102180.55
2019-02-20T23:55:05.051Z,102183.30
2019-02-20T23:57:30.878Z,102184.34
2019-02-20T23:59:57.138Z,102183.52
